Portada
METAR-TAF:

METAR-TAF

Aeropuertos :

Aeropuerto de Cairns

Cairns, Australia

latitud: 16-53S, longitud: 145-45E, altitud: 3 m

Observación

El informe se hizo hace 29 minutos, a las 08:00 UTC
Viento 12 kt del este-sureste
Temperatura 28°C
Humedad 55%
Presión 1011 hPa
Visibilidad 10 km o más
Escasas nubes a una altura de 3000 ft

METAR: YBCS 180800Z 12012KT 9999 FEW030 28/18 Q1011 NOSIG

Hora: 18:29 (08:29 UTC)

Pronóstico

El informe se hizo hace 3 horas y 21 minutos, a las 05:08 UTC
Pronóstico válido del 18 a las 06 UTC al 19 a las 06 UTC
Viento 14 kt del este
Visibilidad 10 km o más
Escasas nubes a una altura de 4500 ft
A partir de las 18 a las 0800 UTC
Viento 8 kt del sureste
Visibilidad 10 km o más
Escasas nubes a una altura de 2500 ft
A partir de las 19 a las 0100 UTC
Viento 14 kt del este
Visibilidad 10 km o más
Escasas nubes a una altura de 4500 ft

TAF: YBCS 180508Z 1806/1906 08014KT 9999 FEW045 FM180800 13008KT 9999 FEW025 FM190100 08014KT 9999 FEW045

Observaciones y pronósticos meteorológicos de más de 4000 aeropuertos (mensajes METAR y TAF).

Los puntos amarillos y rojos representan las estaciones disponibles.

Ponga el ratón en el punto deseado para ver el nombre de la estación.

Haga clic para ver las observaciones y los pronósticos meteorológicos.

Para cambiar el mapa : haga clic en los botones verdes con una cruz de color negro para hacer un zoom, en el botón verde con un guión para alejar o en las flechas verdes para mapas adyacentes.


METAR-TAF: